Time;durP1;ratioP1;P1;durP2;ratioP2;P2;SDS_P1;SDS_P2;PMS_P1;PMS_P2;Temp;Humidity;BMP_temperature;BMP_pressure;BME280_temperature;BME280_humidity;BME280_pressure;Samples;Min_cycle;Max_cycle;Signal;HPM_P1;HPM_P2
2023/01/01 00:00:23;;;;;;;31.60;16.00;;;21.00;80.00;;;;;;4990846;28;20498;-77
2023/01/01 00:02:53;;;;;;;37.20;15.80;;;21.00;79.90;;;;;;4990918;28;20453;-77
2023/01/01 00:05:21;;;;;;;41.83;16.63;;;21.00;79.70;;;;;;4988326;28;20456;-75
2023/01/01 00:07:49;;;;;;;29.13;13.83;;;20.90;79.70;;;;;;4997468;28;20522;-76
2023/01/01 00:10:31;;;;;;;25.00;13.77;;;21.00;79.40;;;;;;4993553;28;20473;-75
2023/01/01 00:12:59;;;;;;;28.37;13.40;;;21.00;79.00;;;;;;4991798;28;20500;-77
2023/01/01 00:15:27;;;;;;;26.50;13.60;;;20.90;78.90;;;;;;4984290;28;20457;-77
2023/01/01 00:17:57;;;;;;;34.90;13.80;;;20.90;78.60;;;;;;4990777;28;20445;-76
2023/01/01 00:20:25;;;;;;;32.03;12.93;;;21.00;78.00;;;;;;4990492;28;20489;-76
2023/01/01 00:23:01;;;;;;;28.80;13.40;;;20.90;77.80;;;;;;4989108;28;20469;-76
2023/01/01 00:25:31;;;;;;;24.20;12.73;;;20.90;77.80;;;;;;4991899;28;20441;-76
2023/01/01 00:27:58;;;;;;;24.90;12.67;;;20.90;77.60;;;;;;4989273;28;20480;-77
2023/01/01 00:30:27;;;;;;;26.73;12.67;;;20.90;77.50;;;;;;4993486;28;20461;-76
2023/01/01 00:32:54;;;;;;;20.93;11.93;;;20.90;77.40;;;;;;4989693;28;20453;-77
2023/01/01 00:35:25;;;;;;;23.07;11.90;;;20.90;77.30;;;;;;4990878;28;20465;-77
2023/01/01 00:37:53;;;;;;;24.43;12.20;;;20.90;77.00;;;;;;4988646;28;20453;-76
2023/01/01 00:40:21;;;;;;;27.37;11.67;;;20.90;77.30;;;;;;4993265;28;20476;-77
2023/01/01 00:42:49;;;;;;;23.97;11.70;;;20.80;77.10;;;;;;4993198;28;20456;-77
2023/01/01 00:45:17;;;;;;;22.07;11.30;;;20.90;77.20;;;;;;4994484;28;20513;-77
2023/01/01 00:47:49;;;;;;;19.83;10.53;;;20.80;77.30;;;;;;4988005;28;20504;-77
2023/01/01 00:50:17;;;;;;;15.57;10.80;;;20.80;77.30;;;;;;4990132;28;20492;-77
2023/01/01 00:52:47;;;;;;;19.03;11.00;;;20.80;77.40;;;;;;4986784;28;20583;-77
2023/01/01 00:55:16;;;;;;;21.87;10.23;;;20.80;77.40;;;;;;4989673;28;20536;-78
2023/01/01 00:57:44;;;;;;;21.73;10.70;;;20.80;77.50;;;;;;4989955;28;20449;-77
2023/01/01 01:00:13;;;;;;;17.23;10.63;;;20.80;77.50;;;;;;4992406;28;20461;-77
2023/01/01 01:02:41;;;;;;;17.97;11.07;;;20.80;77.40;;;;;;4990775;28;20445;-77
2023/01/01 01:05:10;;;;;;;21.00;10.07;;;20.80;77.30;;;;;;4989874;28;20458;-77
2023/01/01 01:07:38;;;;;;;14.67;10.13;;;20.80;76.80;;;;;;4991301;28;20582;-76
2023/01/01 01:10:10;;;;;;;17.30;10.20;;;20.80;76.80;;;;;;4991020;28;20485;-77
2023/01/01 01:12:38;;;;;;;20.93;10.40;;;20.80;76.90;;;;;;4981532;28;20450;-76
2023/01/01 01:15:07;;;;;;;20.73;11.00;;;20.80;76.50;;;;;;4988832;28;20465;-76
2023/01/01 01:17:35;;;;;;;24.00;10.63;;;20.80;76.60;;;;;;4988294;28;20453;-77
2023/01/01 01:20:03;;;;;;;14.00;9.30;;;20.80;76.40;;;;;;4989256;28;20461;-77
2023/01/01 01:22:33;;;;;;;19.40;10.67;;;20.80;76.10;;;;;;4989324;28;20475;-76
2023/01/01 01:25:01;;;;;;;23.10;10.17;;;20.80;76.20;;;;;;4990656;28;20732;-77
2023/01/01 01:27:30;;;;;;;18.00;10.90;;;20.80;76.10;;;;;;4993606;28;20480;-79
2023/01/01 01:29:58;;;;;;;19.50;10.40;;;20.80;76.10;;;;;;4993813;28;21012;-79
2023/01/01 01:32:26;;;;;;;17.97;10.13;;;20.80;76.10;;;;;;4998245;28;20461;-79
2023/01/01 01:34:54;;;;;;;18.60;10.17;;;20.80;75.70;;;;;;4995160;28;20461;-79
2023/01/01 01:37:22;;;;;;;18.50;10.77;;;20.80;75.70;;;;;;4998860;28;20477;-79
2023/01/01 01:39:50;;;;;;;24.53;10.47;;;20.80;75.50;;;;;;4996758;28;20480;-79
2023/01/01 01:42:21;;;;;;;20.37;10.30;;;20.80;75.40;;;;;;4996618;28;20453;-80
2023/01/01 01:44:55;;;;;;;23.10;11.33;;;20.80;75.50;;;;;;4997438;28;20432;-79
2023/01/01 01:47:32;;;;;;;24.10;10.37;;;20.80;75.30;;;;;;4989289;28;20457;-79
2023/01/01 01:50:04;;;;;;;19.90;11.33;;;20.80;75.00;;;;;;4997748;28;20480;-79
2023/01/01 01:52:32;;;;;;;18.67;10.70;;;20.80;74.90;;;;;;4995249;28;20480;-80
2023/01/01 01:55:01;;;;;;;20.50;11.37;;;20.80;74.90;;;;;;4993043;28;20457;-80
2023/01/01 01:57:29;;;;;;;23.03;11.73;;;20.80;75.00;;;;;;4996282;28;20491;-80
2023/01/01 01:59:59;;;;;;;22.80;11.57;;;20.80;74.80;;;;;;4996918;28;20477;-80
2023/01/01 02:02:36;;;;;;;20.10;11.40;;;20.80;74.80;;;;;;4992712;28;20539;-78
2023/01/01 02:05:05;;;;;;;20.40;11.70;;;20.80;74.90;;;;;;4989619;28;20446;-79
2023/01/01 02:07:33;;;;;;;17.33;10.73;;;20.80;74.70;;;;;;4987093;28;20484;-80
2023/01/01 02:10:01;;;;;;;19.70;11.40;;;20.80;74.60;;;;;;4990346;28;20484;-78
2023/01/01 02:12:29;;;;;;;21.30;11.13;;;20.80;74.60;;;;;;4994471;28;20520;-79
2023/01/01 02:14:59;;;;;;;19.87;11.80;;;20.80;74.40;;;;;;4996641;28;20475;-79
2023/01/01 02:17:30;;;;;;;20.23;12.33;;;20.80;74.40;;;;;;4988781;28;20468;-80
2023/01/01 02:20:18;;;;;;;23.87;13.60;;;20.80;74.30;;;;;;4997392;28;20455;-79
2023/01/01 02:22:53;;;;;;;28.43;16.13;;;20.80;74.30;;;;;;4993323;28;20472;-79
2023/01/01 02:25:34;;;;;;;29.20;15.73;;;20.80;74.10;;;;;;4994837;28;20805;-79
2023/01/01 02:28:06;;;;;;;26.87;14.77;;;20.80;74.40;;;;;;4993475;28;20982;-80
2023/01/01 02:30:35;;;;;;;29.30;15.33;;;20.80;74.60;;;;;;5002207;28;20481;-80
2023/01/01 02:33:05;;;;;;;26.93;15.53;;;20.80;74.60;;;;;;5000197;28;20556;-79
2023/01/01 02:35:34;;;;;;;25.40;14.80;;;20.80;74.90;;;;;;5001435;28;20453;-80
2023/01/01 02:38:05;;;;;;;28.73;15.27;;;20.80;75.00;;;;;;5001461;28;20483;-80
2023/01/01 02:40:34;;;;;;;28.20;14.90;;;20.70;75.00;;;;;;5001191;28;20477;-79
2023/01/01 02:43:02;;;;;;;26.80;14.50;;;20.70;75.10;;;;;;5001700;28;20463;-79
2023/01/01 02:45:31;;;;;;;27.93;15.00;;;20.70;75.10;;;;;;5001504;28;20464;-79
2023/01/01 02:48:05;;;;;;;28.23;15.27;;;20.70;75.30;;;;;;5001345;28;20457;-79
2023/01/01 02:50:32;;;;;;;34.40;14.63;;;20.60;75.20;;;;;;5001592;28;20476;-79
2023/01/01 02:53:08;;;;;;;23.07;14.27;;;20.60;75.50;;;;;;5002879;28;20476;-80
2023/01/01 02:55:43;;;;;;;22.80;14.93;;;20.60;75.40;;;;;;4995312;28;20452;-79
2023/01/01 03:01:15;;;;;;;21.80;14.93;;;20.60;75.60;;;;;;4995287;28;20473;-80
2023/01/01 03:03:47;;;;;;;23.77;14.50;;;20.60;75.80;;;;;;4998765;28;20495;-79
2023/01/01 03:06:22;;;;;;;25.97;13.60;;;20.50;75.80;;;;;;4992823;28;20473;-78
2023/01/01 03:08:54;;;;;;;27.70;14.73;;;20.50;75.70;;;;;;4995670;28;20449;-79
2023/01/01 03:11:23;;;;;;;23.73;14.50;;;20.50;75.70;;;;;;4997175;28;20491;-79
2023/01/01 03:13:53;;;;;;;26.93;15.00;;;20.50;75.80;;;;;;5000729;28;20449;-79
2023/01/01 03:16:23;;;;;;;24.07;14.00;;;20.50;75.80;;;;;;5000947;28;20457;-79
2023/01/01 03:19:09;;;;;;;22.17;13.23;;;20.50;75.70;;;;;;4998753;28;20528;-79
2023/01/01 03:21:40;;;;;;;23.20;14.40;;;20.50;75.80;;;;;;4997881;28;20485;-78
2023/01/01 03:24:09;;;;;;;22.43;13.43;;;20.60;75.90;;;;;;4998154;28;20453;-78
2023/01/01 03:26:37;;;;;;;18.93;13.10;;;20.50;75.60;;;;;;4999531;28;20460;-79
2023/01/01 03:29:05;;;;;;;23.43;12.40;;;20.60;75.60;;;;;;4996661;28;20456;-79
2023/01/01 03:31:33;;;;;;;23.23;12.70;;;20.50;75.40;;;;;;4997224;28;20476;-79
2023/01/01 03:34:05;;;;;;;22.90;12.63;;;20.50;75.50;;;;;;4997461;28;20545;-79
2023/01/01 03:36:34;;;;;;;20.87;12.20;;;20.50;75.20;;;;;;5001191;28;20481;-79
2023/01/01 03:39:04;;;;;;;19.27;11.97;;;20.50;75.20;;;;;;4997628;28;20824;-79
2023/01/01 03:41:35;;;;;;;19.00;12.13;;;20.50;75.20;;;;;;4997115;28;21017;-79
2023/01/01 03:44:04;;;;;;;17.80;11.80;;;20.50;75.20;;;;;;4996639;28;20453;-79
2023/01/01 03:46:34;;;;;;;22.00;11.10;;;20.50;75.20;;;;;;4996532;28;20460;-79
2023/01/01 03:49:05;;;;;;;24.17;11.60;;;20.50;75.20;;;;;;4994035;28;20470;-79
2023/01/01 03:51:43;;;;;;;21.93;11.67;;;20.60;75.10;;;;;;4995351;28;20478;-79
2023/01/01 03:54:13;;;;;;;18.53;11.30;;;20.50;74.90;;;;;;4996805;28;20453;-79
2023/01/01 03:56:44;;;;;;;17.37;11.47;;;20.50;74.60;;;;;;4998214;28;20452;-78
2023/01/01 03:59:14;;;;;;;14.97;10.37;;;20.50;74.60;;;;;;4993640;28;20458;-78
2023/01/01 04:01:44;;;;;;;21.93;11.33;;;20.50;74.40;;;;;;4988672;28;20457;-77
2023/01/01 04:04:14;;;;;;;17.57;10.97;;;20.60;74.50;;;;;;4993064;28;20453;-78
2023/01/01 04:06:41;;;;;;;20.57;10.30;;;20.60;74.30;;;;;;4992587;28;20488;-78
2023/01/01 04:09:10;;;;;;;15.90;10.17;;;20.60;74.30;;;;;;4994342;28;20453;-78
2023/01/01 04:14:28;;;;;;;17.10;10.03;;;20.60;74.00;;;;;;4994451;28;20886;-78
2023/01/01 04:16:56;;;;;;;15.57;9.47;;;20.50;73.90;;;;;;4990953;28;20429;-78
2023/01/01 04:19:25;;;;;;;16.33;10.10;;;20.50;73.80;;;;;;4985441;28;20457;-78
2023/01/01 04:21:53;;;;;;;20.27;10.33;;;20.50;73.60;;;;;;4993383;28;20461;-78
2023/01/01 04:24:22;;;;;;;26.60;9.97;;;20.50;73.70;;;;;;4998685;28;20456;-79
2023/01/01 04:26:50;;;;;;;18.23;9.50;;;20.50;73.80;;;;;;4997357;28;20463;-80
2023/01/01 04:29:17;;;;;;;18.60;9.70;;;20.50;73.90;;;;;;4992635;28;20546;-79
2023/01/01 04:31:46;;;;;;;16.20;9.33;;;20.60;73.80;;;;;;4988612;28;20481;-79
2023/01/01 04:34:14;;;;;;;15.60;8.80;;;20.60;73.90;;;;;;4987106;28;20471;-79
2023/01/01 04:36:43;;;;;;;20.70;9.90;;;20.60;73.90;;;;;;4991915;28;20457;-80
2023/01/01 04:39:11;;;;;;;13.83;9.53;;;20.50;73.80;;;;;;4986589;28;20461;-79
2023/01/01 04:41:39;;;;;;;14.37;9.20;;;20.60;73.80;;;;;;4980531;28;20549;-79
2023/01/01 04:44:07;;;;;;;15.20;9.60;;;20.60;73.90;;;;;;4987816;28;20454;-79
2023/01/01 04:46:35;;;;;;;18.60;8.83;;;20.60;73.60;;;;;;4991972;28;20457;-79
2023/01/01 04:49:03;;;;;;;12.27;8.00;;;20.60;73.60;;;;;;4988849;28;20981;-79
2023/01/01 04:51:31;;;;;;;16.43;8.10;;;20.60;73.50;;;;;;4979753;28;20477;-79
2023/01/01 04:54:01;;;;;;;14.53;8.20;;;20.60;73.50;;;;;;4993639;28;20457;-78
2023/01/01 04:56:29;;;;;;;13.23;7.77;;;20.60;73.30;;;;;;4985995;28;20462;-79
2023/01/01 04:58:57;;;;;;;13.67;8.00;;;20.60;72.90;;;;;;4983039;28;20473;-79
2023/01/01 05:01:26;;;;;;;11.77;6.90;;;20.60;72.80;;;;;;4982440;28;20480;-79
2023/01/01 05:03:54;;;;;;;14.43;7.43;;;20.60;72.60;;;;;;4987731;28;20458;-79
2023/01/01 05:06:22;;;;;;;14.17;7.40;;;20.60;72.50;;;;;;4989108;28;20472;-79
2023/01/01 05:08:50;;;;;;;13.90;7.60;;;20.60;72.50;;;;;;4981211;28;20492;-79
2023/01/01 05:11:21;;;;;;;13.77;8.17;;;20.60;72.40;;;;;;4996774;28;20481;-79
2023/01/01 05:13:50;;;;;;;15.93;7.10;;;20.60;72.20;;;;;;4998980;28;20457;-79
2023/01/01 05:16:19;;;;;;;11.50;6.70;;;20.60;71.90;;;;;;4992925;28;20445;-79
2023/01/01 05:18:47;;;;;;;12.40;6.87;;;20.60;71.70;;;;;;4997724;28;20448;-79
2023/01/01 05:21:16;;;;;;;9.23;5.80;;;20.60;71.80;;;;;;4991831;28;20492;-79
2023/01/01 05:23:44;;;;;;;11.63;6.40;;;20.60;71.70;;;;;;4995204;28;20462;-79
2023/01/01 05:26:12;;;;;;;11.73;6.50;;;20.60;71.70;;;;;;4987861;28;20445;-79
2023/01/01 05:28:41;;;;;;;17.90;6.67;;;20.60;71.70;;;;;;4988696;28;20420;-79
2023/01/01 05:31:10;;;;;;;8.70;6.10;;;20.60;71.70;;;;;;4994283;28;20481;-79
2023/01/01 05:33:38;;;;;;;10.30;6.27;;;20.60;71.50;;;;;;4996347;28;20461;-79
2023/01/01 05:36:07;;;;;;;13.80;5.97;;;20.60;71.70;;;;;;4994486;28;20462;-79
2023/01/01 05:38:35;;;;;;;10.20;6.33;;;20.60;71.50;;;;;;4995805;28;20453;-79
2023/01/01 05:41:05;;;;;;;10.07;6.07;;;20.60;71.60;;;;;;4991361;28;20473;-79
2023/01/01 05:43:34;;;;;;;10.20;5.97;;;20.60;71.70;;;;;;4997891;28;20453;-79
2023/01/01 05:46:04;;;;;;;12.20;5.53;;;20.60;71.60;;;;;;4987293;28;20505;-79
2023/01/01 05:48:33;;;;;;;8.30;5.47;;;20.60;71.50;;;;;;4998525;28;20511;-79
2023/01/01 05:51:04;;;;;;;14.10;5.23;;;20.60;71.80;;;;;;4996561;28;20477;-79
2023/01/01 05:53:32;;;;;;;11.60;6.27;;;20.60;71.70;;;;;;4988458;28;20453;-78
2023/01/01 05:56:00;;;;;;;19.00;6.00;;;20.60;71.70;;;;;;4994068;28;20454;-79
2023/01/01 05:58:29;;;;;;;11.30;5.63;;;20.60;71.70;;;;;;4985545;28;20437;-79
2023/01/01 06:00:57;;;;;;;11.80;5.40;;;20.60;71.80;;;;;;4998626;28;20480;-79
2023/01/01 06:03:27;;;;;;;7.17;5.33;;;20.60;71.80;;;;;;4996512;28;20465;-79
2023/01/01 06:05:55;;;;;;;11.80;5.70;;;20.60;71.40;;;;;;4986823;28;20462;-79
2023/01/01 06:08:22;;;;;;;14.00;5.57;;;20.60;71.60;;;;;;4989028;28;20970;-80
2023/01/01 06:10:58;;;;;;;7.50;5.70;;;20.60;71.70;;;;;;4992490;28;20481;-79
2023/01/01 06:13:26;;;;;;;11.33;5.70;;;20.60;71.50;;;;;;4987863;28;20452;-79
2023/01/01 06:15:55;;;;;;;10.37;5.63;;;20.60;71.40;;;;;;4994299;28;20457;-78
2023/01/01 06:18:23;;;;;;;10.27;5.57;;;20.60;71.40;;;;;;4992089;28;20457;-78
2023/01/01 06:20:52;;;;;;;11.33;5.10;;;20.60;71.50;;;;;;4997550;28;20472;-79
2023/01/01 06:23:20;;;;;;;7.60;4.43;;;20.60;71.50;;;;;;4990792;28;20457;-79
2023/01/01 06:25:48;;;;;;;10.50;5.10;;;20.60;71.40;;;;;;4985678;28;20464;-79
2023/01/01 06:28:16;;;;;;;10.47;4.97;;;20.60;71.30;;;;;;4994637;28;20449;-79
2023/01/01 06:30:44;;;;;;;13.27;5.60;;;20.60;71.20;;;;;;4991706;28;20476;-79
2023/01/01 06:33:12;;;;;;;8.50;4.70;;;20.60;71.20;;;;;;4982499;28;20875;-79
2023/01/01 06:35:40;;;;;;;10.50;5.07;;;20.60;71.30;;;;;;4988126;28;20462;-79
2023/01/01 06:38:09;;;;;;;5.97;4.80;;;20.60;71.20;;;;;;4990291;28;20457;-79
2023/01/01 06:40:37;;;;;;;6.43;4.43;;;20.60;71.30;;;;;;4983168;28;20482;-78
2023/01/01 06:43:05;;;;;;;7.40;5.03;;;20.60;71.30;;;;;;4978472;28;20436;-79
2023/01/01 06:45:33;;;;;;;6.00;4.37;;;20.60;71.20;;;;;;4983236;28;20461;-78
2023/01/01 06:48:01;;;;;;;9.80;4.60;;;20.60;71.10;;;;;;4988404;28;20432;-79
2023/01/01 06:50:29;;;;;;;8.07;4.00;;;20.60;71.00;;;;;;4988887;28;20475;-79
2023/01/01 06:52:57;;;;;;;8.17;4.07;;;20.60;71.10;;;;;;4995244;28;20473;-79
2023/01/01 06:55:27;;;;;;;9.03;4.30;;;20.60;71.10;;;;;;4982546;28;20453;-79
2023/01/01 06:57:54;;;;;;;9.77;5.03;;;20.60;71.10;;;;;;4991470;28;20447;-78
2023/01/01 07:00:23;;;;;;;6.00;4.97;;;20.60;71.10;;;;;;4996467;28;20471;-80
2023/01/01 07:02:51;;;;;;;9.00;4.20;;;20.60;70.90;;;;;;4991510;28;20456;-80
2023/01/01 07:05:19;;;;;;;8.70;4.17;;;20.60;71.00;;;;;;4985807;28;20456;-79
2023/01/01 07:07:47;;;;;;;7.10;4.00;;;20.60;71.00;;;;;;4991634;28;20464;-78
2023/01/01 07:10:15;;;;;;;9.50;4.40;;;20.60;70.70;;;;;;4997700;28;20461;-79
2023/01/01 07:12:45;;;;;;;4.63;3.53;;;20.60;70.80;;;;;;5001790;28;20473;-80
2023/01/01 07:15:13;;;;;;;7.87;4.07;;;20.60;70.70;;;;;;4993952;28;20461;-79
2023/01/01 07:17:41;;;;;;;7.53;4.30;;;20.60;70.80;;;;;;4988528;28;20454;-78
2023/01/01 07:20:10;;;;;;;9.83;3.80;;;20.60;70.90;;;;;;4997511;28;20477;-81
2023/01/01 07:22:38;;;;;;;5.67;3.90;;;20.60;70.80;;;;;;4996155;28;20454;-77
2023/01/01 07:25:07;;;;;;;3.83;3.53;;;20.60;70.80;;;;;;4998696;28;20453;-79
2023/01/01 07:27:34;;;;;;;5.07;4.20;;;20.60;70.80;;;;;;5003228;28;20445;-80
2023/01/01 07:30:05;;;;;;;5.23;3.97;;;20.60;70.80;;;;;;4991342;28;20570;-78
2023/01/01 07:32:33;;;;;;;8.70;4.03;;;20.60;70.70;;;;;;4990423;28;20465;-78
2023/01/01 07:35:01;;;;;;;6.90;3.40;;;20.60;70.60;;;;;;4998242;28;20471;-80
2023/01/01 07:37:29;;;;;;;7.77;3.53;;;20.60;70.60;;;;;;5007721;28;20533;-79
2023/01/01 07:39:58;;;;;;;5.20;3.20;;;20.60;70.40;;;;;;5003509;28;20497;-79
2023/01/01 07:42:25;;;;;;;3.33;2.90;;;20.60;70.50;;;;;;5002260;28;20453;-82
2023/01/01 07:44:54;;;;;;;4.70;3.40;;;20.60;70.40;;;;;;4998479;28;20457;-81
2023/01/01 07:47:24;;;;;;;9.60;4.00;;;20.60;70.40;;;;;;4991486;28;20453;-81
2023/01/01 07:49:52;;;;;;;4.40;3.10;;;20.60;70.40;;;;;;5000264;28;20457;-78
2023/01/01 07:52:21;;;;;;;9.73;3.60;;;20.60;70.40;;;;;;5003522;28;21016;-79
2023/01/01 07:54:49;;;;;;;4.13;3.20;;;20.60;70.30;;;;;;5002054;28;20536;-79
2023/01/01 07:57:17;;;;;;;4.70;3.50;;;20.60;70.10;;;;;;5002445;28;20469;-80
2023/01/01 07:59:45;;;;;;;5.40;3.47;;;20.60;69.90;;;;;;4991186;28;20473;-79
2023/01/01 08:02:13;;;;;;;8.40;3.17;;;20.60;69.90;;;;;;4995736;28;20463;-79
2023/01/01 08:04:42;;;;;;;5.27;3.37;;;20.60;69.90;;;;;;4987323;28;20511;-79
2023/01/01 08:07:10;;;;;;;5.83;3.20;;;20.60;69.90;;;;;;4995112;28;20461;-79
2023/01/01 08:09:39;;;;;;;4.57;3.27;;;20.60;69.80;;;;;;4993268;28;20487;-79
2023/01/01 08:12:07;;;;;;;7.73;3.67;;;20.60;69.80;;;;;;4997911;28;20463;-80
2023/01/01 08:14:35;;;;;;;4.57;2.93;;;20.60;69.80;;;;;;4991215;28;20454;-78
2023/01/01 08:17:03;;;;;;;6.97;3.30;;;20.60;69.90;;;;;;4985714;28;20454;-79
2023/01/01 08:19:31;;;;;;;9.57;3.37;;;20.60;69.90;;;;;;4998312;28;20450;-80
2023/01/01 08:22:00;;;;;;;6.20;3.17;;;20.60;69.80;;;;;;4993804;28;20451;-79
2023/01/01 08:24:28;;;;;;;2.93;2.73;;;20.60;69.60;;;;;;5000309;28;20450;-79
2023/01/01 08:26:56;;;;;;;4.87;3.23;;;20.60;69.70;;;;;;4996297;28;20453;-79
2023/01/01 08:29:24;;;;;;;6.93;2.80;;;20.60;69.50;;;;;;4995149;28;20467;-79
2023/01/01 08:31:52;;;;;;;5.73;3.20;;;20.60;69.20;;;;;;4994571;28;20484;-80
2023/01/01 08:34:20;;;;;;;4.70;3.10;;;20.70;69.20;;;;;;4996862;28;20449;-78
2023/01/01 08:36:49;;;;;;;3.70;2.90;;;20.70;69.20;;;;;;4998348;28;20453;-78
2023/01/01 08:39:18;;;;;;;7.50;3.40;;;20.70;69.30;;;;;;4993996;28;20461;-79
2023/01/01 08:41:46;;;;;;;5.87;2.97;;;20.70;69.10;;;;;;4985228;28;20433;-78
2023/01/01 08:44:14;;;;;;;3.83;2.70;;;20.70;69.00;;;;;;4987489;28;20457;-78
2023/01/01 08:46:42;;;;;;;4.20;2.93;;;20.70;69.20;;;;;;5005291;28;20457;-79
2023/01/01 08:49:11;;;;;;;4.17;2.83;;;20.70;69.10;;;;;;5003255;28;20520;-80
2023/01/01 08:51:39;;;;;;;4.20;2.90;;;20.80;68.90;;;;;;4993407;28;20461;-79
2023/01/01 08:54:07;;;;;;;4.60;3.00;;;20.80;68.80;;;;;;4995761;28;20543;-79
2023/01/01 08:56:37;;;;;;;5.80;3.07;;;20.80;68.80;;;;;;4990684;28;20464;-79
2023/01/01 08:59:05;;;;;;;3.63;3.33;;;20.80;68.80;;;;;;4990699;28;20549;-78
2023/01/01 09:01:33;;;;;;;5.23;3.27;;;20.80;68.70;;;;;;4987453;28;20485;-78
2023/01/01 09:04:02;;;;;;;7.27;2.93;;;20.80;68.60;;;;;;4980735;28;20454;-78
2023/01/01 09:06:30;;;;;;;4.20;2.43;;;20.80;68.60;;;;;;4987253;28;20545;-78
2023/01/01 09:08:58;;;;;;;3.30;2.67;;;20.80;68.70;;;;;;4989609;28;20460;-80
2023/01/01 09:11:27;;;;;;;3.77;3.23;;;20.80;68.70;;;;;;4994279;28;20473;-79
2023/01/01 09:13:56;;;;;;;6.53;2.70;;;20.80;68.70;;;;;;4993493;28;20488;-78
2023/01/01 09:16:24;;;;;;;3.57;2.73;;;20.80;68.50;;;;;;4995204;28;20500;-77
2023/01/01 09:18:52;;;;;;;5.10;2.90;;;20.80;68.50;;;;;;4990864;28;20456;-78
2023/01/01 09:21:20;;;;;;;9.03;2.93;;;20.80;68.40;;;;;;4992041;28;20473;-79
2023/01/01 09:23:48;;;;;;;2.57;2.37;;;20.80;68.50;;;;;;4986739;28;20450;-78
2023/01/01 09:26:16;;;;;;;3.00;2.70;;;20.80;68.40;;;;;;4989982;28;20445;-79
2023/01/01 09:28:44;;;;;;;5.67;2.53;;;20.80;68.50;;;;;;4987940;28;20541;-78
2023/01/01 09:31:13;;;;;;;3.27;2.17;;;20.80;68.20;;;;;;4990749;28;20477;-78
2023/01/01 09:33:41;;;;;;;3.53;2.57;;;20.80;68.00;;;;;;4986816;28;20480;-78
2023/01/01 09:36:14;;;;;;;3.90;2.77;;;20.90;68.20;;;;;;4990382;28;20460;-80
2023/01/01 09:38:42;;;;;;;3.60;2.60;;;20.90;68.00;;;;;;4990938;28;20449;-79
2023/01/01 09:41:14;;;;;;;4.20;2.77;;;20.90;68.00;;;;;;4993737;28;20508;-79
2023/01/01 09:43:45;;;;;;;5.17;2.87;;;20.90;68.40;;;;;;4989999;28;20485;-78
2023/01/01 09:46:15;;;;;;;4.90;2.90;;;20.90;68.00;;;;;;4991798;28;20554;-78
2023/01/01 09:48:47;;;;;;;5.00;2.87;;;21.00;68.10;;;;;;4985648;28;20545;-78
2023/01/01 09:51:16;;;;;;;3.03;2.73;;;21.00;67.70;;;;;;4992592;28;20484;-79
2023/01/01 09:53:45;;;;;;;3.10;2.60;;;21.10;67.70;;;;;;4988620;28;20483;-78
2023/01/01 09:56:15;;;;;;;5.47;3.13;;;21.10;67.50;;;;;;4985044;28;20468;-79
2023/01/01 09:58:43;;;;;;;3.27;2.60;;;21.20;67.30;;;;;;4988700;28;20461;-78
2023/01/01 10:01:15;;;;;;;6.20;3.20;;;21.20;67.10;;;;;;4990936;28;20480;-78
2023/01/01 10:03:47;;;;;;;4.67;3.00;;;21.20;67.10;;;;;;4991996;28;20440;-79
2023/01/01 10:06:20;;;;;;;3.27;2.90;;;21.30;67.10;;;;;;4992339;28;20473;-79
2023/01/01 10:08:59;;;;;;;4.20;3.00;;;21.40;67.10;;;;;;4990715;28;20461;-78
2023/01/01 10:11:30;;;;;;;3.97;2.70;;;21.50;67.00;;;;;;4987449;28;20485;-78
2023/01/01 10:13:59;;;;;;;4.60;2.60;;;21.60;67.00;;;;;;4985730;28;20620;-79
2023/01/01 10:16:31;;;;;;;8.67;3.07;;;21.60;66.70;;;;;;4990225;28;20455;-78
2023/01/01 10:19:06;;;;;;;4.20;2.50;;;21.80;66.50;;;;;;4992402;28;20447;-78
2023/01/01 10:24:40;;;;;;;3.77;2.63;;;22.00;66.60;;;;;;4989505;28;20464;-78
2023/01/01 10:27:12;;;;;;;6.23;2.60;;;22.20;66.60;;;;;;4985496;28;20486;-79
2023/01/01 10:29:42;;;;;;;9.73;3.10;;;22.40;66.80;;;;;;4983051;28;20479;-78
2023/01/01 10:32:19;;;;;;;5.00;2.90;;;22.50;66.40;;;;;;4989612;28;20910;-78
2023/01/01 10:34:49;;;;;;;5.03;2.77;;;22.70;66.30;;;;;;4987642;28;20665;-79
2023/01/01 10:37:17;;;;;;;5.93;2.57;;;22.80;65.70;;;;;;4990666;28;20453;-78
2023/01/01 10:39:45;;;;;;;8.30;2.57;;;22.90;65.30;;;;;;4988062;28;20480;-78
2023/01/01 10:42:13;;;;;;;2.90;2.57;;;23.00;65.30;;;;;;4989115;28;20445;-79
2023/01/01 10:44:41;;;;;;;3.27;2.57;;;23.10;65.10;;;;;;4988631;28;20453;-78
2023/01/01 10:47:25;;;;;;;6.17;2.90;;;23.20;64.70;;;;;;4988860;28;20431;-78
2023/01/01 10:49:56;;;;;;;5.93;2.90;;;23.30;64.50;;;;;;4985005;28;20472;-77
2023/01/01 10:52:26;;;;;;;4.63;2.83;;;23.30;64.20;;;;;;4993178;28;20460;-79
2023/01/01 10:54:54;;;;;;;4.50;2.90;;;23.30;64.00;;;;;;4995710;28;20449;-78
2023/01/01 10:57:30;;;;;;;5.03;2.80;;;23.30;64.10;;;;;;4993957;28;20479;-78
2023/01/01 11:00:11;;;;;;;5.77;2.63;;;23.40;64.10;;;;;;4989185;28;20448;-79
2023/01/01 11:02:39;;;;;;;4.63;2.83;;;23.50;64.30;;;;;;4995784;28;20434;-78
2023/01/01 11:05:15;;;;;;;2.67;2.50;;;23.60;64.20;;;;;;4993963;28;20453;-81
2023/01/01 11:07:49;;;;;;;4.40;2.83;;;23.80;64.00;;;;;;5000030;28;20431;-78
2023/01/01 11:10:18;;;;;;;4.27;2.80;;;23.90;63.90;;;;;;4998849;28;20478;-78
2023/01/01 11:12:46;;;;;;;9.77;3.33;;;24.00;63.70;;;;;;4998555;28;20541;-79
2023/01/01 11:15:37;;;;;;;5.10;3.00;;;24.00;63.30;;;;;;4990239;28;20468;-79
2023/01/01 11:18:06;;;;;;;3.20;2.90;;;24.10;63.10;;;;;;4993292;28;20432;-77
2023/01/01 11:20:36;;;;;;;4.87;3.20;;;24.10;63.00;;;;;;4989042;28;20568;-78
2023/01/01 11:23:19;;;;;;;6.83;3.07;;;24.10;62.80;;;;;;4994368;28;20469;-78
2023/01/01 11:26:01;;;;;;;7.90;3.80;;;24.10;62.60;;;;;;4994914;28;20428;-79
2023/01/01 11:28:30;;;;;;;5.67;3.67;;;24.20;62.80;;;;;;5009819;28;20432;-80
2023/01/01 11:31:00;;;;;;;5.93;3.30;;;24.20;62.70;;;;;;4996625;28;20474;-78
2023/01/01 11:33:28;;;;;;;3.97;3.37;;;24.20;62.60;;;;;;4995433;28;20424;-77
2023/01/01 11:35:58;;;;;;;3.93;3.20;;;24.30;62.50;;;;;;5001983;28;20454;-80
2023/01/01 11:38:26;;;;;;;6.20;3.80;;;24.40;62.50;;;;;;4997546;28;20455;-79
2023/01/01 11:41:02;;;;;;;9.03;3.83;;;24.60;62.70;;;;;;5000707;28;20490;-78
2023/01/01 11:43:31;;;;;;;6.03;3.80;;;24.80;62.50;;;;;;4998647;28;20459;-81
2023/01/01 11:46:00;;;;;;;7.43;3.83;;;24.90;62.10;;;;;;4987903;28;20450;-78
2023/01/01 11:52:39;;;;;;;5.90;3.93;;;25.30;61.50;;;;;;4996061;28;20484;-80
2023/01/01 11:55:14;;;;;;;8.17;4.50;;;25.60;61.20;;;;;;5013199;28;20479;-79
2023/01/01 11:57:46;;;;;;;5.60;4.00;;;25.60;60.70;;;;;;5016400;28;20440;-79
2023/01/01 12:00:15;;;;;;;6.97;3.63;;;25.60;60.40;;;;;;5013312;28;20447;-81
2023/01/01 12:02:46;;;;;;;6.20;3.70;;;25.70;60.60;;;;;;5012887;28;20427;-79
2023/01/01 12:05:20;;;;;;;5.37;4.30;;;25.70;60.40;;;;;;5013777;28;20412;-77
2023/01/01 12:07:49;;;;;;;6.80;4.27;;;25.90;60.40;;;;;;5010915;28;20516;-80
2023/01/01 12:10:20;;;;;;;6.00;3.70;;;26.20;59.70;;;;;;5013062;28;20443;-80
2023/01/01 12:12:51;;;;;;;5.80;3.83;;;26.10;59.20;;;;;;5008628;28;20412;-78
2023/01/01 12:15:22;;;;;;;6.63;3.80;;;26.00;59.20;;;;;;5012125;28;20538;-80
2023/01/01 12:17:52;;;;;;;4.00;3.60;;;25.90;59.30;;;;;;4998248;28;20459;-78
2023/01/01 12:20:23;;;;;;;4.47;4.07;;;26.00;59.50;;;;;;4997390;28;20469;-78
2023/01/01 12:22:54;;;;;;;4.37;3.97;;;26.10;59.30;;;;;;4998543;28;20435;-77
2023/01/01 12:25:22;;;;;;;5.70;3.90;;;26.20;59.10;;;;;;5002077;28;20424;-79
2023/01/01 12:27:58;;;;;;;5.60;3.70;;;26.30;58.80;;;;;;5001678;28;20446;-78
2023/01/01 12:30:28;;;;;;;6.93;3.57;;;26.20;58.30;;;;;;5000180;28;20453;-78
2023/01/01 12:33:25;;;;;;;6.40;3.67;;;26.20;58.40;;;;;;5002630;28;20424;-80
2023/01/01 12:36:07;;;;;;;5.10;3.43;;;26.30;58.50;;;;;;4998560;28;20447;-80
2023/01/01 12:38:46;;;;;;;5.97;3.57;;;26.30;58.30;;;;;;5000444;28;20464;-81
2023/01/01 12:41:20;;;;;;;5.70;3.77;;;26.30;57.90;;;;;;4995928;28;20479;-78
2023/01/01 12:43:52;;;;;;;3.80;3.33;;;26.30;57.60;;;;;;5005865;28;20423;-78
2023/01/01 12:46:26;;;;;;;5.90;3.63;;;26.10;57.60;;;;;;5004285;28;20396;-79
2023/01/01 12:49:08;;;;;;;7.10;3.63;;;26.00;57.70;;;;;;5001163;28;20460;-81
2023/01/01 12:51:41;;;;;;;3.80;3.20;;;25.90;57.90;;;;;;4994513;28;20434;-78
2023/01/01 12:54:25;;;;;;;6.63;3.47;;;25.70;57.90;;;;;;4998839;28;20460;-79
2023/01/01 12:56:56;;;;;;;5.37;3.60;;;25.70;58.10;;;;;;5000362;28;20432;-77
2023/01/01 12:59:25;;;;;;;8.00;3.13;;;25.60;58.20;;;;;;4995024;28;20443;-82
2023/01/01 13:01:55;;;;;;;5.20;2.70;;;25.40;58.10;;;;;;5002036;28;20459;-78
2023/01/01 13:04:23;;;;;;;3.47;2.93;;;25.30;58.10;;;;;;4999121;28;20511;-77